Time;durP1;ratioP1;P1;durP2;ratioP2;P2;SDS_P1;SDS_P2;PMS_P1;PMS_P2;Temp;Humidity;BMP_temperature;BMP_pressure;BME280_temperature;BME280_humidity;BME280_pressure;Samples;Min_cycle;Max_cycle;Signal;HPM_P1;HPM_P2
2021/06/23 00:00:55;;;;;;;52.73;40.73;;;;;;;;;;2039633;29;20887;-75
2021/06/23 00:01:57;;;;;;;53.87;42.13;;;;;;;22.40;100.00;57714.63;2047649;28;20225;-74
2021/06/23 00:02:59;;;;;;;51.07;42.00;;;;;;;22.40;100.00;57741.97;2039740;29;20538;-74
2021/06/23 00:03:59;;;;;;;51.60;41.33;;;;;;;;;;2047726;28;20564;-74
2021/06/23 00:05:01;;;;;;;55.90;42.90;;;;;;;22.40;0.00;57713.63;2047549;28;20454;-74
2021/06/23 00:06:02;;;;;;;49.67;41.77;;;;;;;22.40;100.00;91336.38;2047644;28;20233;-74
2021/06/23 00:07:04;;;;;;;56.03;41.77;;;;;;;22.40;100.00;57726.78;2047495;28;20513;-74
2021/06/23 00:08:05;;;;;;;48.17;41.27;;;;;;;;;;2039263;29;20222;-74
2021/06/23 00:09:07;;;;;;;50.57;41.70;;;;;;;22.40;100.00;57744.00;2047514;28;20472;-75
2021/06/23 00:10:08;;;;;;;52.33;42.90;;;;;;;;;;2047179;28;20489;-77
2021/06/23 00:11:09;;;;;;;58.80;43.10;;;;;;;;;;2047398;28;20573;-75
2021/06/23 00:12:16;;;;;;;56.17;42.57;;;;;;;22.40;100.00;57774.44;2047359;28;20578;-74
2021/06/23 00:13:17;;;;;;;52.10;42.10;;;;;;;;;;2055521;28;20453;-74
2021/06/23 00:14:18;;;;;;;55.50;43.13;;;;;;;;;;2047481;28;20458;-74
2021/06/23 00:15:19;;;;;;;53.27;43.27;;;;;;;;;;2047657;28;20477;-74
2021/06/23 00:16:20;;;;;;;51.73;42.33;;;;;;;22.40;100.00;57713.63;2047465;28;20226;-74
2021/06/23 00:17:23;;;;;;;57.10;42.20;;;;;;;;;;2039477;28;20985;-73
2021/06/23 00:18:24;;;;;;;50.17;41.83;;;;;;;;;;2047294;28;20225;-75
2021/06/23 00:19:25;;;;;;;52.47;41.77;;;;;;;;;;2047334;28;20454;-74
2021/06/23 00:20:26;;;;;;;54.03;42.47;;;;;;;;;;2047633;28;20230;-74
2021/06/23 00:21:28;;;;;;;67.17;44.13;;;;;;;22.40;100.00;57713.63;2056104;28;20480;-75
2021/06/23 00:22:28;;;;;;;49.47;41.97;;;;;;;22.40;100.00;124790.38;2047357;28;20226;-74
2021/06/23 00:23:30;;;;;;;54.37;43.67;;;;;;;22.40;100.00;57713.63;2047440;28;20473;-74
2021/06/23 00:24:33;;;;;;;55.77;42.80;;;;;;;;;;2055901;28;20284;-74
2021/06/23 00:25:35;;;;;;;50.63;43.00;;;;;;;22.40;100.00;57713.63;2056103;28;20457;-74
2021/06/23 00:26:36;;;;;;;51.83;41.07;;;;;;;22.40;100.00;57713.63;2056048;28;20464;-73
2021/06/23 00:27:38;;;;;;;53.77;42.03;;;;;;;;;;2056064;28;20451;-74
2021/06/23 00:28:38;;;;;;;53.83;41.67;;;;;;;;;;2046955;28;20830;-75
2021/06/23 00:29:40;;;;;;;52.23;42.70;;;;;;;;;;2039442;29;20557;-74
2021/06/23 00:30:40;;;;;;;57.90;42.43;;;;;;;;;;2047490;28;20767;-74
2021/06/23 00:31:42;;;;;;;55.23;42.23;;;;;;;;;;2056019;28;20881;-74
2021/06/23 00:32:45;;;;;;;58.77;42.27;;;;;;;22.40;100.00;57713.63;2056070;28;20287;-74
2021/06/23 00:33:47;;;;;;;51.20;41.20;;;;;;;;;;2055996;28;20549;-74
2021/06/23 00:34:48;;;;;;;55.77;40.33;;;;;;;;;;2047407;28;20462;-74
2021/06/23 00:35:50;;;;;;;46.57;40.20;;;;;;;;;;2047511;28;20536;-74
2021/06/23 00:36:50;;;;;;;56.17;41.20;;;;;;;;;;2056036;28;20675;-73
2021/06/23 00:37:52;;;;;;;56.00;40.33;;;;;;;;;;2047434;28;20879;-75
2021/06/23 00:38:52;;;;;;;52.50;40.17;;;;;;;;;;2038980;29;20231;-77
2021/06/23 00:39:54;;;;;;;61.80;40.80;;;;;;;22.40;100.00;57714.63;2039356;28;20451;-74
2021/06/23 00:40:55;;;;;;;50.80;40.70;;;;;;;;;;2047323;28;20700;-74
2021/06/23 00:41:57;;;;;;;57.07;41.37;;;;;;;;;;2047251;28;20506;-74
2021/06/23 00:42:58;;;;;;;50.97;42.07;;;;;;;;;;2047523;28;20450;-73
2021/06/23 00:44:00;;;;;;;49.80;40.90;;;;;;;;;;2055813;28;20488;-74
2021/06/23 00:45:02;;;;;;;56.93;42.20;;;;;;;22.40;100.00;57713.63;2047256;28;20868;-74
2021/06/23 00:46:04;;;;;;;54.00;41.23;;;;;;;;;;2039366;29;20872;-74
2021/06/23 00:47:05;;;;;;;48.07;41.23;;;;;;;;;;2039400;29;20473;-73
2021/06/23 00:48:10;;;;;;;54.60;41.83;;;;;;;22.40;100.00;57713.63;2047195;28;20500;-74
2021/06/23 00:49:17;;;;;;;56.53;41.47;;;;;;;22.40;100.00;57713.63;2046867;28;20226;-74
2021/06/23 00:50:41;;;;;;;48.10;40.40;;;;;;;;;;2044703;28;20477;-74
2021/06/23 00:51:48;;;;;;;52.40;42.23;;;;;;;22.40;100.00;57774.44;2047208;28;20555;-74
2021/06/23 00:53:04;;;;;;;53.67;40.47;;;;;;;;;;2049078;28;20446;-74
2021/06/23 00:54:08;;;;;;;55.60;41.60;;;;;;;;;;2055992;28;20453;-74
2021/06/23 00:55:20;;;;;;;49.97;41.43;;;;;;;;;;2046962;28;20468;-74
2021/06/23 00:56:27;;;;;;;52.73;41.27;;;;;;;;;;2040839;29;20454;-74
2021/06/23 00:57:31;;;;;;;52.87;40.73;;;;;;;;;;2039857;28;20455;-74
2021/06/23 00:58:32;;;;;;;51.93;40.93;;;;;;;22.40;100.00;57713.63;2039555;28;20946;-74
2021/06/23 00:59:35;;;;;;;53.17;40.63;;;;;;;22.40;100.00;57713.63;2039306;28;20455;-74
2021/06/23 01:00:36;;;;;;;55.30;40.37;;;;;;;;;;2047521;28;20481;-74
2021/06/23 01:01:39;;;;;;;53.00;41.43;;;;;;;;;;2055532;28;20461;-76
2021/06/23 01:02:40;;;;;;;51.10;41.93;;;;;;;;;;2055896;28;20535;-74
2021/06/23 01:03:44;;;;;;;51.00;41.17;;;;;;;22.40;100.00;124740.00;2055865;28;20949;-74
2021/06/23 01:04:47;;;;;;;56.17;42.07;;;;;;;;;;2055832;28;20491;-74
2021/06/23 01:05:50;;;;;;;56.30;43.47;;;;;;;;;;2047303;28;20458;-74
2021/06/23 01:06:56;;;;;;;49.83;40.67;;;;;;;22.40;100.00;57726.78;2047811;28;20508;-74
2021/06/23 01:07:59;;;;;;;48.70;40.70;;;;;;;;;;2047782;28;20952;-74
2021/06/23 01:09:01;;;;;;;55.70;42.77;;;;;;;22.40;100.00;57713.63;2041133;29;20467;-74
2021/06/23 01:10:03;;;;;;;49.53;40.47;;;;;;;22.40;100.00;57713.63;2041126;28;20959;-74
2021/06/23 01:11:07;;;;;;;51.73;41.50;;;;;;;;;;2041213;29;20921;-74
2021/06/23 01:12:38;;;;;;;52.40;41.37;;;;;;;22.40;100.00;57713.63;2048465;28;20976;-75
2021/06/23 01:13:48;;;;;;;55.57;41.40;;;;;;;;;;2048078;28;20514;-74
2021/06/23 01:14:53;;;;;;;55.97;42.33;;;;;;;22.40;100.00;57713.63;2041789;29;20988;-74
2021/06/23 01:15:55;;;;;;;53.53;42.50;;;;;;;;;;2040952;28;20458;-74
2021/06/23 01:16:56;;;;;;;52.90;41.63;;;;;;;22.40;100.00;57726.78;2040928;29;20867;-74
2021/06/23 01:17:59;;;;;;;55.00;42.30;;;;;;;;;;2040811;29;20566;-75
2021/06/23 01:19:01;;;;;;;62.63;43.17;;;;;;;;;;2048938;28;20226;-73
2021/06/23 01:20:10;;;;;;;57.77;43.30;;;;;;;22.40;100.00;124524.53;2048728;28;20520;-74
2021/06/23 01:21:13;;;;;;;57.10;41.63;;;;;;;22.40;100.00;57714.63;2049046;28;20466;-74
2021/06/23 01:22:16;;;;;;;53.43;42.50;;;;;;;22.40;100.00;57713.63;2057277;28;20444;-74
2021/06/23 01:23:19;;;;;;;56.60;41.93;;;;;;;22.40;100.00;57713.63;2048897;28;20442;-74
2021/06/23 01:24:19;;;;;;;54.30;42.80;;;;;;;;;;2040869;29;20509;-74
2021/06/23 01:25:21;;;;;;;54.93;43.07;;;;;;;;;;2040790;29;21000;-73
2021/06/23 01:26:22;;;;;;;58.10;41.97;;;;;;;22.40;100.00;57707.53;2048963;28;20289;-74
2021/06/23 01:27:24;;;;;;;56.77;42.87;;;;;;;22.40;100.00;124861.44;2056927;28;20516;-76
2021/06/23 01:28:24;;;;;;;54.00;43.03;;;;;;;;;;2057249;28;20233;-74
2021/06/23 01:29:44;;;;;;;50.63;40.33;;;;;;;;;;2056945;28;20452;-74
2021/06/23 01:31:20;;;;;;;58.77;42.70;;;;;;;22.40;100.00;91336.38;2040982;28;20460;-74
2021/06/23 01:32:25;;;;;;;54.07;41.93;;;;;;;;;;2048370;28;20877;-74
2021/06/23 01:33:28;;;;;;;53.20;42.50;;;;;;;;;;2040676;28;20552;-74
2021/06/23 01:34:29;;;;;;;55.03;42.13;;;;;;;;;;2040914;28;20251;-74
2021/06/23 01:35:31;;;;;;;55.63;41.57;;;;;;;22.40;100.00;57713.63;2040591;29;20933;-74
2021/06/23 01:36:32;;;;;;;55.77;42.27;;;;;;;;;;2040730;29;20245;-74
2021/06/23 01:37:35;;;;;;;55.33;44.00;;;;;;;;;;2048701;28;20473;-74
2021/06/23 01:38:36;;;;;;;58.80;43.47;;;;;;;22.40;100.00;57711.34;2048631;28;20508;-74
2021/06/23 01:39:39;;;;;;;55.90;42.90;;;;;;;22.40;100.00;57713.63;2040328;28;20455;-75
2021/06/23 01:40:40;;;;;;;59.07;44.17;;;;;;;22.40;100.00;91336.38;2040665;29;20501;-74
2021/06/23 01:41:42;;;;;;;54.17;43.27;;;;;;;;;;2048571;28;20493;-74
2021/06/23 01:42:43;;;;;;;59.00;43.13;;;;;;;22.40;100.00;57713.63;2048472;28;20234;-74
2021/06/23 01:43:45;;;;;;;56.03;42.40;;;;;;;;;;2048571;28;20500;-74
2021/06/23 01:44:46;;;;;;;56.43;44.17;;;;;;;;;;2048547;28;20245;-74
2021/06/23 01:45:48;;;;;;;56.77;43.73;;;;;;;22.40;100.00;57714.63;2040731;29;20462;-75
2021/06/23 01:46:50;;;;;;;57.43;43.30;;;;;;;;;;2048905;28;20222;-74
2021/06/23 01:47:53;;;;;;;58.97;44.57;;;;;;;;;;2048572;28;20548;-75
2021/06/23 01:48:55;;;;;;;53.67;42.27;;;;;;;22.40;100.00;57713.63;2048203;28;20489;-74
2021/06/23 01:49:56;;;;;;;54.57;42.37;;;;;;;;;;2056586;28;20475;-74
2021/06/23 01:50:59;;;;;;;58.73;43.13;;;;;;;;;;2048463;28;20473;-74
2021/06/23 01:52:06;;;;;;;54.77;41.93;;;;;;;;;;2041555;29;20565;-74
2021/06/23 01:53:09;;;;;;;56.47;42.33;;;;;;;22.40;100.00;57707.53;2048471;28;20449;-74
2021/06/23 01:54:10;;;;;;;58.90;43.27;;;;;;;;;;2056270;28;20971;-74
2021/06/23 01:55:27;;;;;;;52.23;42.13;;;;;;;;;;2048496;28;20458;-74
2021/06/23 01:56:29;;;;;;;55.97;41.97;;;;;;;22.40;100.00;57707.53;2048042;28;20922;-74
2021/06/23 01:57:30;;;;;;;59.33;44.20;;;;;;;;;;2040605;29;20879;-74
2021/06/23 01:58:37;;;;;;;57.87;43.83;;;;;;;;;;2048455;28;21015;-75
2021/06/23 01:59:45;;;;;;;50.63;41.40;;;;;;;;;;2049351;28;20476;-74
2021/06/23 02:01:11;;;;;;;57.73;43.77;;;;;;;;;;2056407;28;20449;-74
2021/06/23 02:02:16;;;;;;;50.73;39.73;;;;;;;;;;2048073;28;20472;-74
2021/06/23 02:03:41;;;;;;;56.30;43.07;;;;;;;;;;2041699;28;20518;-74
2021/06/23 02:04:48;;;;;;;52.83;42.77;;;;;;;;;;2042298;28;20487;-75
2021/06/23 02:06:04;;;;;;;55.97;43.07;;;;;;;;;;2041777;28;20462;-74
2021/06/23 02:07:41;;;;;;;59.63;43.13;;;;;;;22.40;100.00;57713.63;2041593;29;20933;-74
2021/06/23 02:08:53;;;;;;;61.13;42.60;;;;;;;;;;2043041;28;20534;-74
2021/06/23 02:10:01;;;;;;;54.90;42.00;;;;;;;;;;2041470;28;20467;-74
2021/06/23 02:11:34;;;;;;;60.00;43.63;;;;;;;22.40;100.00;124740.00;2051422;28;20452;-74
2021/06/23 02:13:03;;;;;;;54.43;42.50;;;;;;;;;;2047563;28;20478;-74
2021/06/23 02:14:32;;;;;;;56.97;41.87;;;;;;;22.40;100.00;124757.34;2042765;28;20977;-74
2021/06/23 02:15:43;;;;;;;54.53;43.83;;;;;;;;;;2044159;28;20994;-74
2021/06/23 02:16:48;;;;;;;57.73;43.07;;;;;;;22.40;100.00;57713.63;2041179;29;20459;-74
2021/06/23 02:17:55;;;;;;;54.60;43.53;;;;;;;;;;2047923;28;20960;-74
2021/06/23 02:19:14;;;;;;;52.23;41.90;;;;;;;;;;2047468;28;20846;-74
2021/06/23 02:20:37;;;;;;;55.37;42.17;;;;;;;;;;2024089;29;20449;-74
2021/06/23 02:21:48;;;;;;;55.30;42.07;;;;;;;;;;2055652;28;20453;-74
2021/06/23 02:22:50;;;;;;;55.00;42.03;;;;;;;22.40;100.00;57713.63;2048322;28;20477;-74
2021/06/23 02:24:00;;;;;;;55.67;41.90;;;;;;;;;;2048878;28;20233;-75
2021/06/23 02:25:05;;;;;;;59.80;42.50;;;;;;;22.40;100.00;57713.63;2048294;28;20542;-74
2021/06/23 02:26:10;;;;;;;56.60;43.03;;;;;;;;;;2040840;28;20534;-75
2021/06/23 02:27:13;;;;;;;55.13;42.77;;;;;;;22.40;100.00;57713.63;2040400;29;20470;-74
2021/06/23 02:28:14;;;;;;;49.50;40.60;;;;;;;;;;2040385;29;20447;-74
2021/06/23 02:29:17;;;;;;;56.10;41.10;;;;;;;;;;2048513;28;20957;-74
2021/06/23 02:30:19;;;;;;;52.73;41.40;;;;;;;;;;2048256;28;20485;-74
2021/06/23 02:31:27;;;;;;;54.27;41.33;;;;;;;;;;2048063;28;20513;-74
2021/06/23 02:32:30;;;;;;;60.17;42.80;;;;;;;;;;2048161;28;20462;-74
2021/06/23 02:33:33;;;;;;;54.40;43.70;;;;;;;;;;2048342;28;20828;-74
2021/06/23 02:34:35;;;;;;;53.20;43.03;;;;;;;;;;2049048;28;20476;-74
2021/06/23 02:35:59;;;;;;;55.10;43.37;;;;;;;;;;2048179;28;20229;-74
2021/06/23 02:37:06;;;;;;;62.17;43.27;;;;;;;;;;2048233;28;20513;-74
2021/06/23 02:38:08;;;;;;;59.77;43.30;;;;;;;;;;2040243;29;20510;-74
2021/06/23 02:39:12;;;;;;;66.03;44.43;;;;;;;22.40;100.00;57713.63;2047656;28;20222;-74
2021/06/23 02:40:14;;;;;;;54.70;43.07;;;;;;;;;;2040348;29;21056;-73
2021/06/23 02:41:21;;;;;;;57.57;42.07;;;;;;;;;;2048314;28;20960;-74
2021/06/23 02:42:26;;;;;;;61.87;44.30;;;;;;;;;;2047652;28;20461;-75
2021/06/23 02:43:27;;;;;;;59.97;42.43;;;;;;;;;;2040353;29;20872;-74
2021/06/23 02:44:33;;;;;;;56.20;42.63;;;;;;;22.40;100.00;57713.63;2040734;29;20467;-74
2021/06/23 02:45:34;;;;;;;56.00;41.77;;;;;;;22.40;100.00;57741.97;2040285;29;20455;-74
2021/06/23 02:46:36;;;;;;;54.47;41.60;;;;;;;;;;2040167;28;20838;-74
2021/06/23 02:47:59;;;;;;;49.17;39.63;;;;;;;;;;2042643;28;20885;-74
2021/06/23 02:49:34;;;;;;;54.13;40.83;;;;;;;;;;2033222;28;20457;-74
2021/06/23 02:50:39;;;;;;;53.87;42.00;;;;;;;;;;2048067;28;20459;-74
2021/06/23 02:51:56;;;;;;;58.60;42.70;;;;;;;22.40;100.00;57713.63;2041743;28;20494;-74
2021/06/23 02:52:57;;;;;;;57.10;44.03;;;;;;;;;;2040508;28;20458;-74
2021/06/23 02:54:01;;;;;;;57.93;42.57;;;;;;;;;;2040383;28;20601;-74
2021/06/23 02:55:19;;;;;;;54.20;43.17;;;;;;;;;;2050100;28;20473;-75
2021/06/23 02:56:23;;;;;;;59.37;42.83;;;;;;;20.19;nan;98928.28;2048018;28;20927;-74
2021/06/23 02:57:24;;;;;;;57.07;44.53;;;;;;;;;;2047770;28;20519;-74
2021/06/23 02:58:26;;;;;;;58.60;42.10;;;;;;;;;;2048001;28;20470;-75
2021/06/23 02:59:28;;;;;;;52.20;43.03;;;;;;;22.40;100.00;57741.97;2040036;29;20239;-74
2021/06/23 03:00:31;;;;;;;56.00;42.67;;;;;;;;;;2040379;28;20458;-74
2021/06/23 03:01:33;;;;;;;57.23;42.37;;;;;;;;;;2048162;28;20469;-74
2021/06/23 03:02:44;;;;;;;51.20;40.63;;;;;;;;;;2047673;28;20449;-75
2021/06/23 03:03:48;;;;;;;56.00;43.90;;;;;;;22.40;100.00;57713.63;2040258;28;20470;-74
2021/06/23 03:04:51;;;;;;;54.47;43.37;;;;;;;22.40;100.00;57713.63;2040488;29;20513;-74
2021/06/23 03:06:01;;;;;;;58.43;44.27;;;;;;;;;;2040322;28;20498;-74
2021/06/23 03:07:09;;;;;;;55.17;42.17;;;;;;;22.41;100.00;91336.38;2040477;29;20463;-75
2021/06/23 03:08:11;;;;;;;54.40;41.60;;;;;;;;;;2048623;28;20466;-74
2021/06/23 03:09:18;;;;;;;61.10;44.53;;;;;;;;;;2047803;28;20450;-74
2021/06/23 03:10:41;;;;;;;54.00;42.10;;;;;;;20.20;nan;98925.22;2042107;28;20513;-74
2021/06/23 03:11:43;;;;;;;56.90;43.20;;;;;;;22.40;100.00;57726.78;2047842;28;20975;-74
2021/06/23 03:12:52;;;;;;;59.37;42.97;;;;;;;;;;2047815;28;20466;-74
2021/06/23 03:14:09;;;;;;;53.83;42.80;;;;;;;;;;2047415;28;20516;-75
2021/06/23 03:15:22;;;;;;;60.90;41.83;;;;;;;22.40;100.00;57726.78;2047870;28;20453;-76
2021/06/23 03:16:29;;;;;;;49.80;41.53;;;;;;;;;;2040559;29;20926;-74
2021/06/23 03:17:30;;;;;;;53.60;42.67;;;;;;;22.40;100.00;57726.78;2040063;29;20459;-74
2021/06/23 03:18:32;;;;;;;64.73;44.50;;;;;;;22.40;100.00;57774.44;2047873;28;20469;-74
2021/06/23 03:19:33;;;;;;;55.87;42.80;;;;;;;;;;2055671;28;20253;-74
2021/06/23 03:20:35;;;;;;;50.30;42.73;;;;;;;;;;2040106;28;20518;-74
2021/06/23 03:21:36;;;;;;;56.60;42.50;;;;;;;;;;2039943;29;20474;-74
2021/06/23 03:22:39;;;;;;;58.77;44.43;;;;;;;22.40;100.00;57713.63;2039690;28;20463;-75
2021/06/23 03:23:43;;;;;;;55.77;43.80;;;;;;;;;;2048003;28;20454;-74
2021/06/23 03:24:45;;;;;;;56.90;42.93;;;;;;;;;;2047972;28;20465;-74
2021/06/23 03:25:47;;;;;;;57.73;44.60;;;;;;;22.40;100.00;57744.00;2048053;28;20964;-74
2021/06/23 03:26:50;;;;;;;56.03;43.60;;;;;;;22.40;100.00;57726.78;2047793;28;20512;-74
2021/06/23 03:27:53;;;;;;;64.83;44.13;;;;;;;22.40;100.00;57713.63;2039942;29;20541;-74
2021/06/23 03:28:54;;;;;;;63.13;45.57;;;;;;;;;;2047516;28;20454;-75
2021/06/23 03:29:58;;;;;;;55.03;43.27;;;;;;;;;;2047849;28;20462;-74
2021/06/23 03:31:00;;;;;;;57.93;45.97;;;;;;;;;;2047736;28;20449;-74
2021/06/23 03:32:07;;;;;;;62.47;45.47;;;;;;;22.40;100.00;57713.63;2047840;28;20450;-74
2021/06/23 03:33:11;;;;;;;64.07;44.37;;;;;;;;;;2039931;28;20479;-75
2021/06/23 03:34:45;;;;;;;59.57;45.63;;;;;;;;;;2043470;28;20454;-74
2021/06/23 03:35:46;;;;;;;62.47;45.77;;;;;;;;;;2047985;28;20501;-74
2021/06/23 03:36:48;;;;;;;65.00;45.67;;;;;;;;;;2047724;28;20893;-74
2021/06/23 03:37:49;;;;;;;68.73;47.27;;;;;;;;;;2039802;29;20469;-74
2021/06/23 03:38:51;;;;;;;66.70;46.87;;;;;;;;;;2047664;28;20494;-74
2021/06/23 03:39:52;;;;;;;61.87;47.70;;;;;;;;;;2039752;29;20471;-74
2021/06/23 03:40:55;;;;;;;61.70;45.87;;;;;;;;;;2039385;29;20486;-77
2021/06/23 03:41:55;;;;;;;67.00;48.63;;;;;;;;;;2039821;29;20580;-74
2021/06/23 03:42:58;;;;;;;68.90;47.23;;;;;;;;;;2047851;28;20508;-75
2021/06/23 03:44:01;;;;;;;63.27;46.70;;;;;;;;;;2047695;28;20472;-74
2021/06/23 03:45:03;;;;;;;72.83;48.27;;;;;;;;;;2039614;29;20457;-75
2021/06/23 03:46:04;;;;;;;65.97;46.67;;;;;;;;;;2039766;28;20234;-74
2021/06/23 03:47:05;;;;;;;66.13;48.43;;;;;;;;;;2047818;28;20474;-74
2021/06/23 03:48:09;;;;;;;73.23;48.83;;;;;;;;;;2048004;28;20284;-74
2021/06/23 03:49:10;;;;;;;72.33;49.43;;;;;;;;;;2047604;28;20461;-75
2021/06/23 03:50:13;;;;;;;68.13;49.13;;;;;;;;;;2039956;29;20234;-74
2021/06/23 03:51:15;;;;;;;69.77;50.10;;;;;;;;;;2039748;29;20875;-74
2021/06/23 03:52:16;;;;;;;70.40;49.57;;;;;;;;;;2039771;29;20462;-74
2021/06/23 03:53:18;;;;;;;70.50;50.60;;;;;;;;;;2047787;28;20457;-74
2021/06/23 03:54:20;;;;;;;72.00;49.47;;;;;;;;;;2047456;28;20681;-74
2021/06/23 03:55:26;;;;;;;73.83;48.43;;;;;;;;;;2039701;28;20528;-74
2021/06/23 03:56:30;;;;;;;67.27;48.17;;;;;;;;;;2040088;29;20997;-74
2021/06/23 03:57:32;;;;;;;71.73;49.13;;;;;;;;;;2040098;29;20521;-74
2021/06/23 03:58:34;;;;;;;70.23;50.27;;;;;;;;;;2039925;29;20595;-74
2021/06/23 03:59:37;;;;;;;70.07;49.03;;;;;;;;;;2039646;28;20476;-74
2021/06/23 04:00:38;;;;;;;71.43;49.73;;;;;;;;;;2039412;28;20489;-75
2021/06/23 04:02:00;;;;;;;74.27;49.63;;;;;;;;;;2047357;28;20876;-74
2021/06/23 04:03:01;;;;;;;70.40;50.83;;;;;;;;;;2047586;28;20462;-74
2021/06/23 04:04:22;;;;;;;77.63;51.47;;;;;;;;;;2047318;28;20511;-74
2021/06/23 04:05:23;;;;;;;75.97;51.53;;;;;;;;;;2048034;28;20952;-75
2021/06/23 04:06:25;;;;;;;77.30;48.90;;;;;;;;;;2047576;28;20517;-74
2021/06/23 04:07:25;;;;;;;76.03;51.83;;;;;;;;;;2047505;28;20457;-74
2021/06/23 04:08:27;;;;;;;77.50;50.57;;;;;;;;;;2047506;28;20504;-75
2021/06/23 04:09:28;;;;;;;72.00;50.80;;;;;;;;;;2039688;28;20269;-75
2021/06/23 04:10:34;;;;;;;69.30;47.97;;;;;;;;;;2040307;28;20462;-74
2021/06/23 04:11:37;;;;;;;73.03;48.87;;;;;;;;;;2039694;29;20455;-74
2021/06/23 04:12:39;;;;;;;76.00;51.43;;;;;;;;;;2047023;28;20818;-74
2021/06/23 04:13:40;;;;;;;74.73;50.60;;;;;;;;;;2048202;28;20466;-75
2021/06/23 04:14:41;;;;;;;82.80;53.03;;;;;;;;;;2047354;28;20534;-74
2021/06/23 04:15:42;;;;;;;68.63;51.40;;;;;;;;;;2039697;29;20242;-74
2021/06/23 04:16:44;;;;;;;67.43;50.73;;;;;;;;;;2039621;29;20454;-74
2021/06/23 04:17:47;;;;;;;82.40;52.57;;;;;;;-144.27;100.00;91335.66;2039991;29;20305;-74
2021/06/23 04:18:51;;;;;;;73.13;50.33;;;;;;;;;;2039844;28;20461;-74
2021/06/23 04:19:52;;;;;;;66.77;49.37;;;;;;;;;;2039495;28;21012;-74
2021/06/23 04:21:13;;;;;;;77.40;51.07;;;;;;;;;;2046849;28;20975;-73
2021/06/23 04:22:16;;;;;;;75.80;52.23;;;;;;;;;;2047387;28;20493;-74
2021/06/23 04:23:18;;;;;;;80.27;51.90;;;;;;;;;;2039499;29;20455;-74
2021/06/23 04:24:19;;;;;;;75.03;49.47;;;;;;;;;;2039627;29;20223;-74
2021/06/23 04:25:21;;;;;;;78.47;52.77;;;;;;;;;;2047640;28;20501;-74
2021/06/23 04:26:21;;;;;;;79.63;50.83;;;;;;;;;;2048235;28;20222;-74
2021/06/23 04:27:26;;;;;;;73.47;51.03;;;;;;;;;;2046968;28;20446;-75
2021/06/23 04:28:28;;;;;;;67.90;47.63;;;;;;;;;;2039753;28;21032;-77
2021/06/23 04:29:30;;;;;;;73.47;50.67;;;;;;;;;;2039534;28;20447;-77
2021/06/23 04:30:31;;;;;;;67.63;47.27;;;;;;;;;;2039705;28;20864;-77
2021/06/23 04:31:33;;;;;;;71.60;49.97;;;;;;;;;;2039425;28;20463;-77
2021/06/23 04:32:34;;;;;;;73.93;50.67;;;;;;;;;;2039727;29;20229;-77
2021/06/23 04:33:47;;;;;;;66.63;48.43;;;;;;;;;;2040549;28;20459;-77
2021/06/23 04:34:48;;;;;;;69.97;50.23;;;;;;;;;;2039714;28;20478;-77
2021/06/23 04:35:59;;;;;;;72.10;49.60;;;;;;;;;;2040494;28;21013;-77
2021/06/23 04:37:00;;;;;;;72.43;50.27;;;;;;;;;;2039468;29;20977;-77
2021/06/23 04:38:02;;;;;;;73.53;49.87;;;;;;;;;;2039033;29;20860;-77
2021/06/23 04:39:02;;;;;;;69.03;50.03;;;;;;;;;;2047514;28;20245;-77
2021/06/23 04:40:12;;;;;;;71.70;50.17;;;;;;;;;;2046900;28;20807;-77
2021/06/23 04:41:13;;;;;;;72.77;49.83;;;;;;;;;;2039592;29;20485;-77
2021/06/23 04:42:17;;;;;;;65.47;49.47;;;;;;;;;;2039342;29;20462;-77
2021/06/23 04:43:22;;;;;;;76.20;51.80;;;;;;;;;;2047235;28;20450;-77
2021/06/23 04:44:25;;;;;;;83.97;49.73;;;;;;;;;;2046913;28;20458;-77
2021/06/23 04:45:26;;;;;;;77.00;50.53;;;;;;;;;;2047451;28;21079;-77
2021/06/23 04:46:39;;;;;;;67.53;49.23;;;;;;;;;;2047810;28;20474;-77
2021/06/23 04:47:41;;;;;;;73.13;50.53;;;;;;;;;;2047325;28;20454;-77
2021/06/23 04:48:42;;;;;;;77.57;50.00;;;;;;;;;;2047440;28;20450;-77
2021/06/23 04:49:50;;;;;;;81.67;53.53;;;;;;;;;;2047330;28;20308;-77
2021/06/23 04:50:55;;;;;;;77.87;51.40;;;;;;;;;;2039539;28;20832;-77
2021/06/23 04:52:01;;;;;;;78.27;52.50;;;;;;;;;;2040054;29;20454;-77
2021/06/23 04:53:02;;;;;;;73.80;50.47;;;;;;;;;;2039417;29;20530;-77
2021/06/23 04:54:03;;;;;;;73.73;50.97;;;;;;;;;;2039592;29;20222;-77
2021/06/23 04:55:06;;;;;;;80.40;51.47;;;;;;;;;;2039443;29;20527;-77
2021/06/23 04:56:08;;;;;;;76.80;51.53;;;;;;;;;;2039289;28;20898;-77
2021/06/23 04:57:15;;;;;;;68.77;49.53;;;;;;;;;;2047447;28;20462;-78
2021/06/23 04:58:16;;;;;;;80.00;49.07;;;;;;;;;;2047378;28;21006;-77
2021/06/23 04:59:21;;;;;;;74.30;49.83;;;;;;;;;;2039702;29;20466;-77
2021/06/23 05:00:22;;;;;;;64.10;47.53;;;;;;;;;;2039415;28;20920;-76
2021/06/23 05:01:23;;;;;;;69.83;49.67;;;;;;;;;;2039017;29;20479;-77
2021/06/23 05:02:24;;;;;;;73.50;49.80;;;;;;;;;;2039322;29;20270;-77
2021/06/23 05:03:25;;;;;;;63.07;46.83;;;;;;;;;;2047378;28;20536;-77
2021/06/23 05:04:26;;;;;;;71.97;48.30;;;;;;;;;;2047913;28;20230;-77
2021/06/23 05:05:27;;;;;;;76.77;51.20;;;;;;;;;;2047237;28;20991;-77
2021/06/23 05:06:28;;;;;;;72.07;50.50;;;;;;;;;;2039422;29;20226;-77
2021/06/23 05:07:30;;;;;;;65.43;47.73;;;;;;;;;;2047402;28;20442;-77
2021/06/23 05:08:31;;;;;;;64.33;48.70;;;;;;;;;;2047348;28;20627;-77
2021/06/23 05:09:32;;;;;;;66.23;49.13;;;;;;;;;;2047299;28;20775;-77
2021/06/23 05:10:33;;;;;;;64.50;46.67;;;;;;;;;;2047173;28;20222;-77
2021/06/23 05:11:35;;;;;;;71.10;49.40;;;;;;;;;;2047218;28;20925;-77
2021/06/23 05:12:35;;;;;;;67.90;48.63;;;;;;;;;;2052321;28;20225;-77
2021/06/23 05:13:38;;;;;;;72.77;49.03;;;;;;;;;;2047294;28;20545;-77
2021/06/23 05:14:39;;;;;;;68.40;49.00;;;;;;;;;;2047115;28;20241;-77
2021/06/23 05:15:41;;;;;;;68.67;49.90;;;;;;;;;;2047244;28;20964;-77
2021/06/23 05:16:41;;;;;;;66.17;46.90;;;;;;;;;;2047317;28;20453;-77
2021/06/23 05:17:43;;;;;;;70.67;49.47;;;;;;;;;;2055798;28;20460;-77
2021/06/23 05:18:44;;;;;;;63.47;48.57;;;;;;;;;;2055724;28;20613;-77
2021/06/23 05:19:45;;;;;;;76.87;51.47;;;;;;;;;;2047209;28;20458;-77
2021/06/23 05:20:46;;;;;;;64.87;48.53;;;;;;;;;;2039377;29;20234;-77
2021/06/23 05:21:48;;;;;;;68.67;47.53;;;;;;;;;;2047087;28;20960;-77
2021/06/23 05:22:48;;;;;;;66.53;48.97;;;;;;;;;;2039242;28;20226;-77
2021/06/23 05:23:50;;;;;;;66.30;47.87;;;;;;;;;;2047258;28;20533;-77
2021/06/23 05:24:51;;;;;;;65.00;47.60;;;;;;;22.40;100.00;124656.63;2047134;28;20241;-77
2021/06/23 05:25:53;;;;;;;78.20;48.60;;;;;;;;;;2039336;29;20977;-77
2021/06/23 05:26:53;;;;;;;73.90;48.37;;;;;;;;;;2046964;28;20994;-77
2021/06/23 05:27:55;;;;;;;68.80;47.73;;;;;;;;;;2055648;28;20803;-77
2021/06/23 05:28:55;;;;;;;69.17;49.70;;;;;;;;;;2055920;28;20225;-77
2021/06/23 05:29:59;;;;;;;68.43;48.10;;;;;;;-144.27;100.00;69762.25;2055755;28;20970;-77
2021/06/23 05:30:59;;;;;;;68.23;49.00;;;;;;;;;;2055761;28;20229;-78
2021/06/23 05:32:01;;;;;;;69.50;50.00;;;;;;;;;;2055734;28;20442;-77
2021/06/23 05:33:01;;;;;;;70.60;49.57;;;;;;;;;;2055724;28;20213;-77
2021/06/23 05:34:03;;;;;;;67.07;48.03;;;;;;;;;;2055829;28;20445;-77
2021/06/23 05:35:05;;;;;;;77.10;49.90;;;;;;;22.40;100.00;124656.63;2055759;28;20364;-77
2021/06/23 05:36:06;;;;;;;70.67;49.70;;;;;;;;;;2055738;28;20460;-77
2021/06/23 05:37:06;;;;;;;70.23;49.67;;;;;;;;;;2047184;28;20963;-77
2021/06/23 05:38:08;;;;;;;70.73;50.80;;;;;;;;;;2038861;29;20909;-77
2021/06/23 05:39:09;;;;;;;69.30;47.70;;;;;;;;;;2038689;29;20694;-77
2021/06/23 05:40:10;;;;;;;69.67;48.13;;;;;;;;;;2047063;28;20913;-78
2021/06/23 05:41:11;;;;;;;71.77;49.63;;;;;;;;;;2055717;28;20668;-77
2021/06/23 05:42:12;;;;;;;70.90;47.57;;;;;;;;;;2055594;28;20806;-77
2021/06/23 05:43:13;;;;;;;70.90;49.30;;;;;;;;;;2047067;28;20785;-76
2021/06/23 05:44:15;;;;;;;66.40;47.50;;;;;;;;;;2039222;29;20874;-77
2021/06/23 05:45:17;;;;;;;64.67;46.37;;;;;;;22.40;100.00;124722.66;2047387;28;20225;-77
2021/06/23 05:46:18;;;;;;;66.60;47.17;;;;;;;;;;2055755;28;20464;-77
2021/06/23 05:47:19;;;;;;;70.37;48.13;;;;;;;;;;2055711;28;21010;-77
2021/06/23 05:48:20;;;;;;;68.77;48.17;;;;;;;22.40;100.00;124656.63;2047185;28;20824;-77
2021/06/23 05:49:21;;;;;;;68.23;48.67;;;;;;;;;;2047049;28;20222;-77
2021/06/23 05:50:23;;;;;;;75.83;50.77;;;;;;;22.40;100.00;124656.63;2047273;28;20516;-77
2021/06/23 05:51:24;;;;;;;65.23;47.10;;;;;;;;;;2046711;28;20230;-77
2021/06/23 05:52:25;;;;;;;70.07;48.37;;;;;;;;;;2046867;28;20529;-77